Time;durP1;ratioP1;P1;durP2;ratioP2;P2;SDS_P1;SDS_P2;PMS_P1;PMS_P2;Temp;Humidity;BMP_temperature;BMP_pressure;BME280_temperature;BME280_humidity;BME280_pressure;Samples;Min_cycle;Max_cycle;Signal;HPM_P1;HPM_P2
2022/02/19 00:02:23;;;;;;;5.70;1.50;;;6.10;99.90;;;;;;4908115;29;20234;-86
2022/02/19 00:04:48;;;;;;;2.17;1.27;;;5.80;99.90;;;;;;4913187;29;20892;-84
2022/02/19 00:07:14;;;;;;;2.20;1.67;;;5.30;99.90;;;;;;4904047;29;20215;-84
2022/02/19 00:09:40;;;;;;;9.00;1.83;;;;;;;;;;4926705;29;20195;-84
2022/02/19 00:12:06;;;;;;;3.05;1.45;;;5.90;99.90;;;;;;4916330;29;20413;-84
2022/02/19 00:14:32;;;;;;;2.47;1.50;;;5.90;99.90;;;;;;4918843;29;20255;-84
2022/02/19 00:16:57;;;;;;;4.77;2.20;;;5.90;99.90;;;;;;4910075;29;20208;-85
2022/02/19 00:19:23;;;;;;;5.47;2.00;;;8.30;99.90;;;;;;4926894;29;20264;-85
2022/02/19 00:21:51;;;;;;;6.70;1.93;;;5.80;99.90;;;;;;4919090;29;20579;-85
2022/02/19 00:24:17;;;;;;;4.68;1.85;;;5.90;99.90;;;;;;4903018;29;20457;-84
2022/02/19 00:26:42;;;;;;;0.70;0.70;;;5.80;99.90;;;;;;4863382;29;1113007;-85
2022/02/19 00:29:08;;;;;;;6.63;1.27;;;5.90;99.90;;;;;;4921851;29;20188;-85
2022/02/19 00:31:34;;;;;;;4.07;1.57;;;5.90;99.90;;;;;;4905109;29;20196;-85
2022/02/19 00:34:00;;;;;;;5.97;2.13;;;5.90;99.90;;;;;;4902199;29;20863;-85
2022/02/19 00:36:26;;;;;;;4.30;2.05;;;5.90;99.90;;;;;;4900719;29;20394;-85
2022/02/19 00:38:51;;;;;;;5.50;2.07;;;6.00;99.90;;;;;;4914938;29;20203;-85
2022/02/19 00:41:18;;;;;;;2.20;0.97;;;6.00;99.90;;;;;;4906895;29;20803;-84
2022/02/19 00:43:44;;;;;;;1.10;1.00;;;8.20;99.90;;;;;;4912036;29;20184;-84
2022/02/19 00:46:10;;;;;;;3.90;1.13;;;7.90;99.90;;;;;;4906752;29;20287;-84
2022/02/19 00:48:35;;;;;;;2.33;1.90;;;6.00;99.90;;;;;;4912141;29;20646;-84
2022/02/19 00:51:01;;;;;;;1.80;1.20;;;6.30;99.90;;;;;;4923640;29;20194;-85
2022/02/19 00:53:27;;;;;;;5.72;1.90;;;6.10;99.90;;;;;;4923297;29;20434;-84
2022/02/19 00:55:53;;;;;;;7.93;1.70;;;6.10;99.90;;;;;;4900157;29;20552;-85
2022/02/19 00:58:19;;;;;;;3.20;1.45;;;;;;;;;;4915289;29;20622;-85
2022/02/19 01:00:48;;;;;;;3.17;2.40;;;;;;;;;;4930708;29;20211;-85
2022/02/19 01:03:14;;;;;;;7.88;1.67;;;6.10;99.90;;;;;;4914515;29;20941;-84
2022/02/19 01:05:40;;;;;;;2.83;1.40;;;6.10;99.90;;;;;;4914217;29;20202;-84
2022/02/19 01:08:06;;;;;;;5.05;1.70;;;6.10;99.90;;;;;;4921319;29;21007;-85
2022/02/19 01:10:34;;;;;;;6.63;1.48;;;5.20;99.90;;;;;;4912202;29;20560;-85
2022/02/19 01:13:00;;;;;;;14.02;1.95;;;8.80;99.90;;;;;;4908905;29;20266;-86
2022/02/19 01:15:25;;;;;;;3.90;1.80;;;5.90;99.90;;;;;;4913003;29;20191;-84
2022/02/19 01:17:51;;;;;;;1.20;1.13;;;;;;;;;;4917949;29;20692;-84
2022/02/19 01:20:52;;;;;;;5.03;1.35;;;6.20;99.90;;;;;;4913032;29;20191;-84
2022/02/19 01:23:19;;;;;;;5.50;1.83;;;6.10;99.90;;;;;;4903904;29;20196;-85
2022/02/19 01:25:45;;;;;;;4.68;1.85;;;6.10;99.90;;;;;;4911709;29;20184;-84
2022/02/19 01:28:10;;;;;;;5.10;1.20;;;6.10;99.90;;;;;;4924363;29;20232;-85
2022/02/19 01:30:38;;;;;;;4.03;1.93;;;6.10;99.90;;;;;;4914506;29;20282;-83
2022/02/19 01:33:04;;;;;;;2.08;1.20;;;6.20;99.90;;;;;;4905100;29;20305;-84
2022/02/19 01:35:33;;;;;;;0.93;0.90;;;4.70;99.90;;;;;;4908469;29;20259;-85
2022/02/19 01:38:01;;;;;;;4.85;2.33;;;6.70;99.90;;;;;;4912232;29;20428;-85
2022/02/19 01:40:27;;;;;;;5.95;1.58;;;6.90;99.90;;;;;;4921709;29;20206;-85
2022/02/19 01:42:53;;;;;;;2.73;1.60;;;4.80;99.90;;;;;;4915914;29;20192;-86
2022/02/19 01:45:39;;;;;;;3.15;1.20;;;5.90;99.90;;;;;;4914696;29;20211;-84
2022/02/19 01:48:05;;;;;;;1.73;1.55;;;7.30;99.90;;;;;;4924992;29;20207;-84
2022/02/19 01:50:37;;;;;;;3.33;1.97;;;7.30;99.90;;;;;;4920449;29;20681;-86
2022/02/19 01:53:03;;;;;;;2.08;1.52;;;5.80;99.90;;;;;;4928909;29;20446;-86
2022/02/19 01:55:32;;;;;;;4.27;1.50;;;5.20;99.90;;;;;;4912224;29;20677;-85
2022/02/19 01:57:58;;;;;;;5.18;1.52;;;6.00;99.90;;;;;;4911513;29;20292;-85
2022/02/19 02:00:26;;;;;;;1.70;1.45;;;5.90;99.90;;;;;;4920078;29;20626;-84
2022/02/19 02:02:52;;;;;;;3.40;1.95;;;5.90;99.90;;;;;;4909899;29;20266;-84
2022/02/19 02:05:23;;;;;;;3.37;1.50;;;5.80;99.90;;;;;;4915541;29;20595;-84
2022/02/19 02:07:49;;;;;;;3.13;2.15;;;6.10;99.90;;;;;;4910945;29;20204;-85
2022/02/19 02:10:15;;;;;;;1.20;1.20;;;;;;;;;;4897503;29;20199;-85
2022/02/19 02:12:45;;;;;;;7.78;1.25;;;6.20;99.90;;;;;;4910174;29;20275;-85
2022/02/19 02:15:24;;;;;;;1.88;1.77;;;5.50;99.90;;;;;;4918630;29;20200;-84
2022/02/19 02:17:55;;;;;;;6.10;1.50;;;8.50;99.90;;;;;;4925645;29;20211;-85
2022/02/19 02:20:21;;;;;;;3.92;1.65;;;6.90;99.90;;;;;;4925213;29;20184;-84
2022/02/19 02:22:50;;;;;;;2.60;1.90;;;;;;;;;;4919581;29;20741;-86
2022/02/19 02:25:20;;;;;;;3.47;1.75;;;6.20;99.90;;;;;;4910181;29;20619;-85
2022/02/19 02:27:46;;;;;;;1.67;1.35;;;6.10;99.90;;;;;;4902750;29;20223;-85
2022/02/19 02:30:18;;;;;;;12.80;2.57;;;6.20;99.90;;;;;;4903420;29;20286;-84
2022/02/19 02:33:14;;;;;;;9.27;2.40;;;6.30;99.90;;;;;;4903112;29;20745;-84
2022/02/19 02:35:42;;;;;;;3.42;1.38;;;6.30;99.90;;;;;;4912581;29;20205;-85
2022/02/19 02:38:13;;;;;;;5.90;1.60;;;5.40;99.90;;;;;;4909185;29;20231;-85
2022/02/19 02:40:41;;;;;;;5.63;1.92;;;8.90;99.90;;;;;;4903003;29;20187;-85
2022/02/19 02:43:10;;;;;;;4.57;1.05;;;6.60;99.90;;;;;;4910492;29;20677;-85
2022/02/19 02:45:37;;;;;;;4.93;1.90;;;6.80;99.90;;;;;;4894925;29;20207;-84
2022/02/19 02:48:03;;;;;;;0.88;0.85;;;6.10;99.90;;;;;;4909388;29;20199;-84
2022/02/19 02:50:28;;;;;;;2.55;1.60;;;6.20;99.90;;;;;;4910646;29;20188;-85
2022/02/19 02:52:54;;;;;;;6.20;2.30;;;5.90;99.90;;;;;;4907370;29;20205;-85
2022/02/19 02:55:20;;;;;;;8.40;2.20;;;5.30;99.90;;;;;;4905408;29;20237;-85
2022/02/19 02:57:46;;;;;;;2.97;1.43;;;;;;;;;;4911580;29;20226;-85
2022/02/19 03:00:13;;;;;;;4.10;1.65;;;6.20;99.90;;;;;;4922941;29;20187;-85
2022/02/19 03:02:40;;;;;;;3.83;1.80;;;6.10;99.90;;;;;;4909979;29;20230;-85
2022/02/19 03:05:07;;;;;;;2.53;1.10;;;6.00;99.90;;;;;;4926194;29;20595;-85
2022/02/19 03:07:33;;;;;;;5.55;1.80;;;6.00;99.90;;;;;;4914668;29;20267;-85
2022/02/19 03:09:59;;;;;;;7.13;1.40;;;6.00;99.90;;;;;;4909941;29;20684;-85
2022/02/19 03:12:26;;;;;;;1.27;1.03;;;6.00;99.90;;;;;;4911850;29;20297;-85
2022/02/19 03:14:52;;;;;;;8.85;1.85;;;6.00;99.90;;;;;;4900835;29;20250;-84
2022/02/19 03:17:17;;;;;;;7.93;1.98;;;8.60;99.90;;;;;;4902326;29;20199;-85
2022/02/19 03:19:45;;;;;;;8.60;1.60;;;5.70;99.90;;;;;;4912333;29;20717;-85
2022/02/19 03:22:10;;;;;;;7.72;1.88;;;5.80;99.90;;;;;;4923271;29;20603;-85
2022/02/19 03:24:36;;;;;;;3.27;1.40;;;5.70;99.90;;;;;;4912584;29;20180;-82
2022/02/19 03:27:02;;;;;;;6.53;2.63;;;5.50;99.90;;;;;;4918875;29;20227;-85
2022/02/19 03:29:29;;;;;;;5.18;0.77;;;5.60;99.90;;;;;;4899705;29;20188;-84
2022/02/19 03:31:55;;;;;;;4.82;1.10;;;5.60;99.90;;;;;;4919943;29;20188;-85
2022/02/19 03:34:23;;;;;;;5.47;1.73;;;4.90;99.90;;;;;;4913632;29;20199;-85
2022/02/19 03:36:48;;;;;;;1.70;1.60;;;5.10;99.90;;;;;;4920128;29;20479;-85
2022/02/19 03:39:26;;;;;;;5.60;1.60;;;4.70;99.90;;;;;;4915341;29;20681;-85
2022/02/19 03:41:52;;;;;;;3.22;1.60;;;6.30;99.90;;;;;;4917484;29;20274;-85
2022/02/19 03:44:17;;;;;;;4.73;1.60;;;8.10;99.90;;;;;;4908881;29;20641;-86
2022/02/19 03:46:43;;;;;;;1.67;1.53;;;;;;;;;;4915809;29;20258;-84
2022/02/19 03:49:09;;;;;;;4.93;2.13;;;5.50;99.90;;;;;;4920117;29;20193;-84
2022/02/19 03:51:35;;;;;;;2.30;2.07;;;4.90;99.90;;;;;;4917728;29;20211;-84
2022/02/19 03:54:00;;;;;;;3.50;2.13;;;5.30;99.90;;;;;;4914373;29;20669;-84
2022/02/19 03:56:37;;;;;;;1.83;1.53;;;5.40;99.90;;;;;;4908433;29;20294;-85
2022/02/19 03:59:03;;;;;;;5.22;1.50;;;4.10;99.90;;;;;;4914926;29;20176;-85
2022/02/19 04:01:28;;;;;;;3.58;1.10;;;4.70;99.90;;;;;;4929471;29;20227;-84
2022/02/19 04:03:54;;;;;;;0.90;0.90;;;5.40;99.90;;;;;;4921699;29;20215;-84
2022/02/19 04:06:19;;;;;;;4.27;2.40;;;7.10;99.90;;;;;;4921253;29;20203;-84
2022/02/19 04:08:45;;;;;;;6.13;1.77;;;5.40;99.90;;;;;;4900382;29;20267;-85
2022/02/19 04:11:12;;;;;;;8.63;1.63;;;5.80;99.90;;;;;;4921255;29;20211;-85
2022/02/19 04:13:39;;;;;;;1.83;1.70;;;5.50;99.90;;;;;;4924468;29;20479;-84
2022/02/19 04:16:04;;;;;;;2.97;1.30;;;5.60;99.90;;;;;;4920292;29;20195;-84
2022/02/19 04:18:30;;;;;;;3.43;1.53;;;5.60;99.90;;;;;;4908938;29;20187;-84
2022/02/19 04:20:56;;;;;;;5.00;1.67;;;5.50;99.90;;;;;;4911001;29;20222;-85
2022/02/19 04:23:21;;;;;;;2.73;2.00;;;5.50;99.90;;;;;;4905232;29;20906;-85
2022/02/19 04:25:52;;;;;;;1.47;1.37;;;5.60;99.90;;;;;;4971427;23;20238;-81
2022/02/19 04:28:21;;;;;;;13.82;1.35;;;5.70;99.90;;;;;;4895881;29;20661;-82
2022/02/19 04:30:47;;;;;;;7.10;2.20;;;5.60;99.90;;;;;;4911859;29;20202;-81
2022/02/19 04:33:12;;;;;;;7.90;1.93;;;5.60;99.90;;;;;;4912874;29;20371;-81
2022/02/19 04:35:39;;;;;;;3.80;1.43;;;5.50;99.90;;;;;;4918561;29;20589;-81
2022/02/19 04:38:05;;;;;;;4.22;1.80;;;5.70;99.90;;;;;;4925366;29;20180;-82
2022/02/19 04:40:31;;;;;;;1.63;1.53;;;6.10;99.90;;;;;;4904337;29;20191;-82
2022/02/19 04:42:57;;;;;;;5.23;1.10;;;5.70;99.90;;;;;;4903319;29;20499;-82
2022/02/19 04:45:22;;;;;;;3.93;1.77;;;5.40;99.90;;;;;;4919892;29;20192;-81
2022/02/19 04:47:48;;;;;;;4.30;1.60;;;5.70;99.90;;;;;;4911330;29;20599;-81
2022/02/19 04:50:14;;;;;;;1.40;0.93;;;6.10;99.90;;;;;;4918449;29;20575;-82
2022/02/19 04:52:39;;;;;;;1.70;1.60;;;5.70;99.90;;;;;;4906446;29;20200;-83
2022/02/19 04:57:43;;;;;;;7.68;1.98;;;5.50;99.90;;;;;;4902865;29;20611;-86
2022/02/19 05:00:14;;;;;;;6.28;1.95;;;5.80;99.90;;;;;;4887712;29;20663;-86
2022/02/19 05:02:40;;;;;;;3.80;2.25;;;5.50;99.90;;;;;;4893303;29;20224;-86
2022/02/19 05:05:06;;;;;;;2.10;1.20;;;5.40;99.90;;;;;;4917361;29;20539;-86
2022/02/19 05:08:00;;;;;;;2.90;1.42;;;5.50;99.90;;;;;;4918987;29;20531;-86
2022/02/19 05:10:25;;;;;;;5.10;1.90;;;5.50;99.90;;;;;;4888143;29;20247;-86
2022/02/19 05:12:52;;;;;;;4.50;1.80;;;;;;;;;;4895022;29;20770;-85
2022/02/19 05:15:18;;;;;;;9.05;1.63;;;5.50;99.90;;;;;;4893004;29;20642;-85
2022/02/19 05:17:48;;;;;;;3.87;1.60;;;8.40;99.90;;;;;;4910864;29;20183;-85
2022/02/19 05:20:14;;;;;;;5.65;2.28;;;6.90;99.90;;;;;;4904078;29;20433;-85
2022/02/19 05:22:40;;;;;;;5.20;2.00;;;5.40;99.90;;;;;;4229176;29;10000666;-85
2022/02/19 05:25:06;;;;;;;2.65;1.38;;;5.70;99.90;;;;;;4909586;29;20295;-85
2022/02/19 05:27:32;;;;;;;4.63;1.00;;;5.30;99.90;;;;;;4892727;29;20239;-85
2022/02/19 05:29:58;;;;;;;1.33;1.10;;;5.20;99.90;;;;;;4893297;29;20235;-85
2022/02/19 05:32:23;;;;;;;3.40;2.43;;;4.60;99.90;;;;;;4879831;29;20295;-85
2022/02/19 05:34:51;;;;;;;2.30;1.30;;;5.00;99.90;;;;;;4889303;29;20628;-84
2022/02/19 05:37:16;;;;;;;3.97;1.80;;;5.20;99.90;;;;;;4893313;29;20196;-85
2022/02/19 05:39:42;;;;;;;6.23;3.73;;;5.40;99.90;;;;;;4890917;29;20606;-85
2022/02/19 05:42:08;;;;;;;6.60;1.80;;;5.10;99.90;;;;;;4891174;29;20207;-86
2022/02/19 05:44:33;;;;;;;7.83;1.77;;;5.00;99.90;;;;;;4906678;29;20210;-85
2022/02/19 05:46:59;;;;;;;6.50;2.20;;;6.60;99.90;;;;;;4908579;29;20263;-85
2022/02/19 05:49:25;;;;;;;1.00;0.97;;;4.80;99.90;;;;;;4890120;29;20208;-86
2022/02/19 05:51:51;;;;;;;3.33;1.90;;;5.10;99.90;;;;;;4909355;29;20191;-85
2022/02/19 05:54:16;;;;;;;2.67;1.30;;;4.90;99.90;;;;;;4906831;29;20442;-85
2022/02/19 05:56:42;;;;;;;10.70;1.80;;;4.90;99.90;;;;;;4894940;29;20520;-85
2022/02/19 05:59:08;;;;;;;2.10;1.40;;;4.40;99.90;;;;;;4877246;29;20200;-85
2022/02/19 06:01:33;;;;;;;12.20;1.43;;;5.00;99.90;;;;;;4555441;29;10000130;-86
2022/02/19 06:04:01;;;;;;;3.50;1.17;;;5.10;99.90;;;;;;4889845;29;20422;-85
2022/02/19 06:06:27;;;;;;;1.23;1.15;;;5.00;99.90;;;;;;4879283;29;20216;-85
2022/02/19 06:08:53;;;;;;;11.00;3.63;;;5.00;99.90;;;;;;4895116;29;20173;-86
2022/02/19 06:11:19;;;;;;;2.53;1.17;;;5.00;99.90;;;;;;4877886;29;20813;-85
2022/02/19 06:13:45;;;;;;;5.40;1.40;;;4.60;99.90;;;;;;4874116;29;20718;-84
2022/02/19 06:16:10;;;;;;;4.70;1.27;;;5.00;99.90;;;;;;4891206;29;20185;-85
2022/02/19 06:18:36;;;;;;;10.33;2.10;;;5.10;99.90;;;;;;4889037;29;20636;-84
2022/02/19 06:21:02;;;;;;;6.30;1.20;;;5.00;99.90;;;;;;4891522;29;20225;-85
2022/02/19 06:23:27;;;;;;;1.57;1.30;;;5.10;99.90;;;;;;4882765;29;20189;-85
2022/02/19 06:25:53;;;;;;;2.93;1.60;;;4.80;99.90;;;;;;4890358;29;20817;-84
2022/02/19 06:28:19;;;;;;;1.13;1.10;;;5.10;99.90;;;;;;4870579;29;20181;-84
2022/02/19 06:30:44;;;;;;;5.87;1.73;;;5.00;99.90;;;;;;4889651;29;20196;-85
2022/02/19 06:33:10;;;;;;;10.37;2.27;;;5.10;99.90;;;;;;4890941;29;20181;-85
2022/02/19 06:35:36;;;;;;;9.17;1.33;;;4.80;99.90;;;;;;4888042;29;20184;-85
2022/02/19 06:38:02;;;;;;;3.23;2.00;;;5.10;99.90;;;;;;4890427;29;20428;-84
2022/02/19 06:40:27;;;;;;;4.83;1.90;;;5.10;99.90;;;;;;4891157;29;20188;-85
2022/02/19 06:42:53;;;;;;;1.80;1.17;;;4.90;99.90;;;;;;4886424;29;20224;-85
2022/02/19 06:45:19;;;;;;;5.43;1.70;;;5.00;99.90;;;;;;4885454;29;20186;-84
2022/02/19 06:47:44;;;;;;;2.80;1.30;;;5.10;99.90;;;;;;4880837;29;20196;-85
2022/02/19 06:50:10;;;;;;;9.27;2.23;;;5.20;99.90;;;;;;4890218;29;20255;-85
2022/02/19 06:52:36;;;;;;;3.13;1.17;;;5.10;99.90;;;;;;4871339;29;20220;-85
2022/02/19 06:55:03;;;;;;;2.13;1.30;;;5.10;99.90;;;;;;4886578;29;20216;-85
2022/02/19 06:57:29;;;;;;;4.95;1.10;;;5.10;99.90;;;;;;4886611;29;20280;-84
2022/02/19 06:59:54;;;;;;;3.90;1.27;;;5.10;99.90;;;;;;4875788;29;20192;-85
2022/02/19 07:02:20;;;;;;;9.13;1.80;;;4.40;99.90;;;;;;4880497;29;20228;-86
2022/02/19 07:04:46;;;;;;;5.40;1.00;;;5.20;99.90;;;;;;4875355;29;20200;-84
2022/02/19 07:07:14;;;;;;;3.75;1.65;;;5.10;99.90;;;;;;4874037;29;20464;-85
2022/02/19 07:09:40;;;;;;;3.13;2.70;;;6.40;99.90;;;;;;4535109;29;9999828;-84
2022/02/19 07:12:06;;;;;;;9.10;0.90;;;5.30;99.90;;;;;;4872166;29;20223;-85
2022/02/19 07:14:33;;;;;;;5.03;0.95;;;5.10;99.90;;;;;;4886829;29;20193;-85
2022/02/19 07:17:04;;;;;;;14.85;2.20;;;5.10;99.90;;;;;;4869518;29;20232;-85
2022/02/19 07:19:34;;;;;;;25.42;1.40;;;5.10;99.90;;;;;;4892251;29;20212;-85
2022/02/19 07:22:01;;;;;;;4.63;1.37;;;5.90;99.90;;;;;;4889901;29;20220;-85
2022/02/19 07:24:27;;;;;;;2.88;1.08;;;5.20;99.90;;;;;;4890964;29;20427;-85
2022/02/19 07:26:53;;;;;;;4.73;1.43;;;5.10;99.90;;;;;;4888767;29;20205;-85
2022/02/19 07:29:19;;;;;;;7.75;1.30;;;5.20;99.90;;;;;;4876145;29;20433;-85
2022/02/19 07:31:48;;;;;;;5.25;2.00;;;5.10;99.90;;;;;;4891217;29;20682;-84
2022/02/19 07:34:14;;;;;;;2.22;2.03;;;5.30;99.90;;;;;;4892128;29;20682;-85
2022/02/19 07:36:40;;;;;;;3.15;1.75;;;5.30;99.90;;;;;;4888720;29;20749;-86
2022/02/19 07:39:09;;;;;;;5.63;1.23;;;7.50;99.90;;;;;;4890830;29;20200;-85
2022/02/19 07:41:36;;;;;;;3.65;0.80;;;6.30;99.90;;;;;;4889638;29;20483;-85
2022/02/19 07:44:02;;;;;;;6.82;1.20;;;7.80;99.90;;;;;;4891599;29;20659;-84
2022/02/19 07:46:28;;;;;;;5.03;1.75;;;6.80;99.90;;;;;;4889336;29;20200;-84
2022/02/19 07:48:53;;;;;;;8.17;1.93;;;7.70;99.90;;;;;;4869391;29;20197;-85
2022/02/19 07:59:31;;;;;;;1.67;1.17;;;5.20;99.90;;;;;;4881526;29;20288;-84
2022/02/19 08:02:09;;;;;;;3.10;1.60;;;5.00;99.90;;;;;;4855626;29;20315;-84
2022/02/19 08:04:35;;;;;;;1.73;1.63;;;7.10;99.90;;;;;;4850000;29;20212;-84
2022/02/19 08:07:00;;;;;;;3.60;1.63;;;5.50;99.90;;;;;;4874381;29;20196;-84
2022/02/19 08:09:26;;;;;;;4.73;1.77;;;5.90;99.90;;;;;;4893014;29;20203;-86
2022/02/19 08:11:51;;;;;;;4.50;1.77;;;4.90;99.90;;;;;;4910048;29;20262;-86
2022/02/19 08:14:17;;;;;;;7.87;2.07;;;;;;;;;;4901017;29;20674;-85
2022/02/19 08:16:43;;;;;;;2.00;1.60;;;5.60;99.90;;;;;;4873754;29;20211;-85
2022/02/19 08:19:09;;;;;;;6.43;2.00;;;;;;;;;;4885349;29;20188;-85
2022/02/19 08:21:35;;;;;;;3.27;1.10;;;5.80;99.90;;;;;;4904064;29;20251;-85
2022/02/19 08:24:00;;;;;;;8.40;1.90;;;5.80;99.90;;;;;;4887655;29;20551;-84
2022/02/19 08:26:27;;;;;;;5.03;3.50;;;5.60;99.90;;;;;;4893341;29;20211;-84
2022/02/19 08:28:53;;;;;;;2.58;1.17;;;5.60;99.90;;;;;;4886748;29;20193;-84
2022/02/19 08:31:20;;;;;;;9.73;1.70;;;5.70;99.90;;;;;;4858348;29;20188;-84
2022/02/19 08:34:23;;;;;;;4.60;1.50;;;5.80;99.90;;;;;;4876162;29;20255;-85
2022/02/19 08:36:56;;;;;;;3.95;1.63;;;5.70;99.90;;;;;;4893240;29;20219;-84
2022/02/19 08:39:22;;;;;;;4.35;1.55;;;5.70;99.90;;;;;;4890978;29;20203;-84
2022/02/19 08:41:48;;;;;;;6.70;1.90;;;5.80;99.90;;;;;;4888532;29;20296;-86
2022/02/19 08:44:14;;;;;;;1.13;1.13;;;5.70;99.90;;;;;;4891586;29;20212;-85
2022/02/19 08:46:39;;;;;;;6.80;1.50;;;6.30;99.90;;;;;;4891556;29;20189;-84
2022/02/19 08:49:05;;;;;;;1.40;1.40;;;5.70;99.90;;;;;;4893301;29;20273;-85
2022/02/19 08:51:31;;;;;;;4.30;1.57;;;5.80;99.90;;;;;;4892566;29;20802;-85
2022/02/19 08:53:59;;;;;;;1.30;1.13;;;5.40;99.90;;;;;;4880554;29;20374;-85
2022/02/19 08:56:25;;;;;;;3.15;1.48;;;5.60;99.90;;;;;;4892611;29;20592;-84
2022/02/19 08:58:51;;;;;;;7.33;2.40;;;6.30;99.90;;;;;;4880435;29;20220;-85
2022/02/19 09:01:16;;;;;;;4.13;1.30;;;6.40;99.90;;;;;;4893237;29;20307;-84
2022/02/19 09:03:42;;;;;;;6.90;1.60;;;;;;;;;;4885048;29;20177;-84
2022/02/19 09:06:08;;;;;;;1.50;1.40;;;6.80;99.90;;;;;;4876424;29;20177;-84
2022/02/19 09:08:34;;;;;;;3.93;1.60;;;;;;;;;;4873800;29;20528;-85
2022/02/19 09:11:00;;;;;;;4.40;2.30;;;6.70;99.90;;;;;;4892526;29;20191;-85
2022/02/19 09:13:26;;;;;;;6.80;2.07;;;6.70;99.90;;;;;;4890598;29;20276;-84
2022/02/19 09:15:52;;;;;;;2.33;1.80;;;6.80;99.90;;;;;;4875226;29;20202;-85
2022/02/19 09:18:18;;;;;;;8.85;1.55;;;6.70;99.90;;;;;;4891141;29;20196;-84
2022/02/19 09:20:44;;;;;;;9.97;2.87;;;7.30;99.90;;;;;;4892401;29;20204;-85
2022/02/19 09:23:10;;;;;;;3.93;1.67;;;8.10;99.90;;;;;;4891099;29;20655;-86
2022/02/19 09:25:36;;;;;;;6.50;1.90;;;8.10;99.90;;;;;;4892241;29;20184;-84
2022/02/19 09:28:02;;;;;;;5.87;1.10;;;7.40;99.90;;;;;;4871724;29;20445;-84
2022/02/19 09:30:29;;;;;;;5.03;1.60;;;7.80;99.90;;;;;;4875318;29;20191;-84
2022/02/19 09:32:59;;;;;;;1.80;0.93;;;8.10;99.90;;;;;;4890041;29;20476;-85
2022/02/19 09:35:26;;;;;;;6.13;2.83;;;8.50;99.90;;;;;;4893533;29;20416;-86
2022/02/19 09:37:51;;;;;;;3.90;1.63;;;8.50;99.40;;;;;;4890635;29;20761;-89
2022/02/19 09:40:17;;;;;;;1.50;1.20;;;;;;;;;;4872739;29;20477;-86
2022/02/19 09:43:05;;;;;;;5.35;1.55;;;8.40;99.60;;;;;;4881991;29;20221;-88
2022/02/19 09:45:31;;;;;;;1.47;1.37;;;10.90;99.90;;;;;;4879913;29;20200;-87
2022/02/19 09:48:06;;;;;;;3.42;1.30;;;9.60;99.90;;;;;;4893895;29;20437;-88
2022/02/19 09:50:40;;;;;;;6.93;1.47;;;8.00;99.90;;;;;;4881776;29;20299;-86
2022/02/19 09:53:07;;;;;;;3.13;1.40;;;10.50;99.80;;;;;;4867526;29;20420;-87
2022/02/19 09:55:41;;;;;;;2.33;0.83;;;10.70;99.90;;;;;;4211653;29;10022360;-86
2022/02/19 09:58:07;;;;;;;2.67;1.30;;;9.80;98.20;;;;;;4874386;29;20211;-86
2022/02/19 10:00:35;;;;;;;4.13;1.70;;;10.10;92.80;;;;;;4887334;29;20428;-85
2022/02/19 10:03:01;;;;;;;3.53;1.87;;;11.20;93.50;;;;;;4889131;29;20750;-85
2022/02/19 10:05:34;;;;;;;4.13;1.63;;;8.70;95.30;;;;;;4870449;29;20476;-85
2022/02/19 10:08:07;;;;;;;0.83;0.60;;;9.00;95.10;;;;;;4882518;29;20779;-85
2022/02/19 10:10:35;;;;;;;6.60;1.77;;;9.10;94.30;;;;;;4886310;29;20445;-87
2022/02/19 10:13:01;;;;;;;0.90;0.90;;;9.60;96.20;;;;;;4889642;29;20436;-87
2022/02/19 10:15:49;;;;;;;2.13;1.27;;;9.80;93.60;;;;;;4884858;29;20444;-88
2022/02/19 10:18:29;;;;;;;2.87;1.77;;;9.50;92.40;;;;;;4887377;29;20604;-87
2022/02/19 10:21:22;;;;;;;7.73;1.60;;;9.10;92.30;;;;;;4885169;29;20461;-86
2022/02/19 10:23:56;;;;;;;0.93;0.60;;;9.50;92.70;;;;;;4872589;29;20868;-88
2022/02/19 10:26:28;;;;;;;1.73;1.63;;;9.00;90.80;;;;;;4874510;29;21053;-87
2022/02/19 10:29:06;;;;;;;10.70;2.00;;;8.40;91.60;;;;;;4871185;29;20989;-88
2022/02/19 10:31:33;;;;;;;3.03;2.63;;;8.30;93.20;;;;;;4874202;29;20420;-86
2022/02/19 10:34:09;;;;;;;3.43;1.97;;;9.40;95.80;;;;;;4884191;29;20476;-85
2022/02/19 10:36:45;;;;;;;5.50;1.60;;;8.60;96.00;;;;;;4877949;29;20440;-87
2022/02/19 10:39:11;;;;;;;2.05;0.70;;;7.90;94.50;;;;;;4880206;29;20461;-85
2022/02/19 10:41:39;;;;;;;8.27;1.50;;;7.50;94.70;;;;;;4876651;29;20212;-86
2022/02/19 10:44:44;;;;;;;4.57;1.85;;;7.90;95.60;;;;;;4890233;29;20196;-86
2022/02/19 10:47:40;;;;;;;5.10;1.90;;;7.70;94.90;;;;;;4882308;29;20196;-84
2022/02/19 10:50:13;;;;;;;1.90;1.60;;;7.60;95.50;;;;;;4862448;29;20425;-88
2022/02/19 10:52:54;;;;;;;4.10;1.35;;;8.00;97.30;;;;;;4894845;29;20189;-87
2022/02/19 10:55:23;;;;;;;6.63;0.63;;;8.40;99.30;;;;;;4864048;29;20185;-87
2022/02/19 10:57:52;;;;;;;5.20;2.33;;;10.50;96.40;;;;;;5111639;23;20246;-84
2022/02/19 11:00:21;;;;;;;4.37;1.80;;;8.70;93.00;;;;;;4908497;29;20524;-81
2022/02/19 11:03:21;;;;;;;5.25;1.80;;;8.60;92.50;;;;;;4912884;29;20692;-85
2022/02/19 11:05:49;;;;;;;2.80;1.80;;;8.40;92.30;;;;;;4896873;29;20211;-86
2022/02/19 11:08:22;;;;;;;5.13;1.50;;;7.80;94.10;;;;;;4933866;29;20235;-87
2022/02/19 11:10:50;;;;;;;4.70;3.20;;;10.30;94.60;;;;;;4902113;29;20191;-86
2022/02/19 11:13:17;;;;;;;2.08;1.10;;;8.00;94.50;;;;;;4916756;29;20467;-83
2022/02/19 11:15:43;;;;;;;0.90;0.90;;;8.50;92.40;;;;;;4915426;29;20192;-87
2022/02/19 11:18:12;;;;;;;3.70;0.93;;;8.10;84.80;;;;;;4910696;29;20595;-83
2022/02/19 11:20:38;;;;;;;13.40;1.67;;;10.00;81.30;;;;;;4920376;29;20428;-87
2022/02/19 11:23:04;;;;;;;6.63;2.17;;;8.30;85.50;;;;;;4912457;29;20514;-87
2022/02/19 11:25:34;;;;;;;4.20;1.40;;;9.10;92.70;;;;;;4615848;29;10001299;-87
2022/02/19 11:28:08;;;;;;;2.97;1.87;;;11.90;83.90;;;;;;4916104;29;20200;-87
2022/02/19 11:30:40;;;;;;;10.90;6.23;;;8.60;93.50;;;;;;4903405;29;20436;-82
2022/02/19 11:33:09;;;;;;;4.17;1.30;;;10.40;88.20;;;;;;4890341;29;20450;-82
2022/02/19 11:35:42;;;;;;;3.33;3.05;;;8.40;97.00;;;;;;4902864;29;20819;-88
2022/02/19 11:38:37;;;;;;;4.53;1.87;;;7.10;89.70;;;;;;4928238;29;20666;-89
2022/02/19 11:41:10;;;;;;;2.53;1.40;;;8.80;90.80;;;;;;4918375;29;20514;-84
2022/02/19 11:43:39;;;;;;;3.17;0.67;;;9.10;90.50;;;;;;4904146;29;20215;-88
2022/02/19 11:46:16;;;;;;;0.90;0.90;;;8.80;84.90;;;;;;4913034;29;20465;-84
2022/02/19 11:48:57;;;;;;;1.63;1.55;;;11.40;90.00;;;;;;4936173;29;20435;-86
2022/02/19 11:51:33;;;;;;;0.83;0.83;;;7.50;84.80;;;;;;4890487;29;20618;-88
2022/02/19 11:54:07;;;;;;;2.47;1.38;;;8.90;88.90;;;;;;4922774;29;20427;-84
2022/02/19 11:56:40;;;;;;;4.10;1.87;;;12.20;91.60;;;;;;4900993;29;20728;-80
2022/02/19 11:59:12;;;;;;;1.43;1.00;;;8.20;81.80;;;;;;4906760;29;20533;-85
2022/02/19 12:02:00;;;;;;;9.33;1.40;;;12.90;87.50;;;;;;4903031;29;20498;-87
2022/02/19 12:04:29;;;;;;;6.87;1.63;;;12.90;86.70;;;;;;4894802;29;21044;-82
2022/02/19 12:07:16;;;;;;;6.03;1.20;;;9.00;81.20;;;;;;4921933;29;20446;-87
2022/02/19 12:10:10;;;;;;;2.50;1.63;;;9.10;82.40;;;;;;4903858;29;20484;-88
2022/02/19 12:13:04;;;;;;;2.67;1.20;;;8.90;84.40;;;;;;4917582;29;20439;-85
2022/02/19 12:15:34;;;;;;;5.50;2.20;;;9.00;79.00;;;;;;4946312;29;20809;-85
2022/02/19 12:18:14;;;;;;;2.37;1.80;;;10.20;76.80;;;;;;4906291;29;20932;-89
2022/02/19 12:20:40;;;;;;;2.40;1.10;;;11.30;75.20;;;;;;4909826;29;20429;-86
2022/02/19 12:23:09;;;;;;;1.00;1.00;;;12.50;67.80;;;;;;4933799;29;20489;-85
2022/02/19 12:26:03;;;;;;;2.10;1.07;;;13.80;61.20;;;;;;4928814;29;20439;-87
2022/02/19 12:28:40;;;;;;;1.47;1.37;;;12.30;56.10;;;;;;4902574;29;20491;-88
2022/02/19 12:31:24;;;;;;;3.07;1.10;;;14.70;57.50;;;;;;4893101;29;20437;-88
2022/02/19 12:33:52;;;;;;;1.90;1.10;;;12.10;58.40;;;;;;4925100;29;20929;-87
2022/02/19 12:36:23;;;;;;;2.87;1.10;;;12.00;58.30;;;;;;4948506;29;20439;-88
2022/02/19 12:38:59;;;;;;;1.70;1.60;;;8.90;58.60;;;;;;4911590;29;20436;-86
2022/02/19 12:41:42;;;;;;;2.20;1.53;;;12.60;61.60;;;;;;4909531;29;21029;-89
2022/02/19 12:44:10;;;;;;;3.30;0.97;;;10.80;59.20;;;;;;4911141;29;20437;-83
2022/02/19 12:46:38;;;;;;;1.90;1.37;;;11.60;57.20;;;;;;4887515;29;20425;-88
2022/02/19 12:49:04;;;;;;;1.97;1.80;;;11.60;57.90;;;;;;4945410;29;20530;-82
2022/02/19 12:51:32;;;;;;;1.97;1.87;;;10.30;57.30;;;;;;4885301;29;20440;-80
2022/02/19 12:54:04;;;;;;;1.20;1.20;;;9.90;60.60;;;;;;4925764;29;20427;-88
2022/02/19 12:57:21;;;;;;;3.80;1.80;;;10.00;59.80;;;;;;4912282;29;20452;-89
2022/02/19 12:59:53;;;;;;;4.47;1.13;;;11.70;58.30;;;;;;4901956;29;20486;-88
2022/02/19 13:02:24;;;;;;;1.20;0.70;;;10.50;57.00;;;;;;4922465;29;20485;-87
2022/02/19 13:05:02;;;;;;;1.30;1.30;;;10.90;58.10;;;;;;4923676;29;20428;-84
2022/02/19 13:07:28;;;;;;;1.17;1.07;;;10.60;59.80;;;;;;4908931;29;20454;-87
2022/02/19 13:09:56;;;;;;;2.57;1.30;;;9.80;60.00;;;;;;4919667;29;20484;-83
2022/02/19 13:12:37;;;;;;;5.22;1.20;;;12.10;61.90;;;;;;4919355;29;20421;-86
2022/02/19 13:15:09;;;;;;;1.80;1.40;;;9.60;63.20;;;;;;4893707;29;20196;-87
2022/02/19 13:17:46;;;;;;;1.60;1.43;;;12.00;63.80;;;;;;4915230;29;20455;-87
2022/02/19 13:20:19;;;;;;;3.37;1.13;;;11.40;59.30;;;;;;4903041;29;20507;-86
2022/02/19 13:22:49;;;;;;;3.40;1.17;;;10.60;56.70;;;;;;4931675;29;20478;-87